Time;durP1;ratioP1;P1;durP2;ratioP2;P2;SDS_P1;SDS_P2;PMS_P1;PMS_P2;Temp;Humidity;BMP_temperature;BMP_pressure;BME280_temperature;BME280_humidity;BME280_pressure;Samples;Min_cycle;Max_cycle;Signal;HPM_P1;HPM_P2
2022/09/16 00:01:21;;;;;;;5.13;1.57;;;11.00;1.00;;;;;;5094487;28;20889;-75
2022/09/16 00:03:47;;;;;;;5.73;1.60;;;11.10;1.00;;;;;;5094898;28;20657;-69
2022/09/16 00:06:19;;;;;;;5.03;1.30;;;11.10;1.00;;;;;;5076348;28;20208;-73
2022/09/16 00:09:02;;;;;;;7.27;1.73;;;11.20;1.00;;;;;;5076661;28;20446;-75
2022/09/16 00:11:33;;;;;;;2.50;1.53;;;11.30;1.00;;;;;;5076328;28;20409;-69
2022/09/16 00:13:59;;;;;;;2.67;1.60;;;11.30;1.00;;;;;;5094885;28;20383;-68
2022/09/16 00:16:27;;;;;;;2.70;1.60;;;11.20;1.00;;;;;;5094042;28;20423;-74
2022/09/16 00:18:57;;;;;;;3.40;1.47;;;11.20;1.00;;;;;;5094254;28;20424;-69
2022/09/16 00:21:23;;;;;;;3.17;1.80;;;11.20;1.00;;;;;;5094645;28;20371;-68
2022/09/16 00:23:49;;;;;;;6.10;2.03;;;11.30;1.00;;;;;;5094578;28;20379;-69
2022/09/16 00:26:19;;;;;;;2.37;1.27;;;11.20;1.00;;;;;;5093853;28;20854;-69
2022/09/16 00:28:48;;;;;;;1.50;1.37;;;11.20;1.00;;;;;;5076302;28;20206;-68
2022/09/16 00:31:14;;;;;;;2.30;1.83;;;11.10;1.00;;;;;;5094412;28;20844;-75
2022/09/16 00:33:40;;;;;;;4.23;1.50;;;11.10;1.00;;;;;;5094391;28;20367;-68
2022/09/16 00:36:09;;;;;;;6.17;2.63;;;11.10;1.00;;;;;;5093111;28;20389;-74
2022/09/16 00:38:36;;;;;;;3.70;1.47;;;11.20;1.00;;;;;;5094055;28;20887;-68
2022/09/16 00:41:35;;;;;;;4.07;2.03;;;11.00;1.00;;;;;;5094201;28;20396;-75
2022/09/16 00:44:42;;;;;;;1.80;1.40;;;11.00;1.00;;;;;;5068898;28;20412;-68
2022/09/16 00:47:07;;;;;;;4.90;2.00;;;11.00;1.00;;;;;;5065779;28;20737;-74
2022/09/16 00:49:33;;;;;;;3.53;1.33;;;11.00;1.00;;;;;;5094053;28;20437;-75
2022/09/16 00:52:04;;;;;;;3.03;1.57;;;10.90;1.00;;;;;;5076275;28;20521;-75
2022/09/16 00:54:33;;;;;;;9.03;2.03;;;10.80;1.00;;;;;;5075081;28;20177;-75
2022/09/16 00:57:01;;;;;;;2.43;1.50;;;10.70;1.00;;;;;;5093309;28;20434;-75
2022/09/16 00:59:35;;;;;;;2.23;1.73;;;10.60;1.00;;;;;;5094019;28;20394;-75
2022/09/16 01:02:10;;;;;;;1.87;1.23;;;10.50;1.00;;;;;;5094044;28;20735;-74
2022/09/16 01:04:55;;;;;;;2.50;1.37;;;10.60;1.00;;;;;;5075903;28;20487;-74
2022/09/16 01:07:44;;;;;;;3.10;1.30;;;10.60;1.00;;;;;;5075356;28;20397;-69
2022/09/16 01:10:11;;;;;;;5.33;1.83;;;10.50;1.00;;;;;;5093555;28;20480;-74
2022/09/16 01:12:41;;;;;;;5.23;1.90;;;10.50;1.00;;;;;;5093371;28;20727;-75
2022/09/16 01:15:07;;;;;;;4.83;2.13;;;10.50;1.00;;;;;;5093414;28;20903;-74
2022/09/16 01:17:45;;;;;;;3.37;1.63;;;10.50;1.00;;;;;;5093012;28;20861;-74
2022/09/16 01:20:49;;;;;;;6.93;2.60;;;10.50;1.00;;;;;;5093688;28;20862;-72
2022/09/16 01:23:40;;;;;;;2.13;1.20;;;10.50;1.00;;;;;;5075335;28;20447;-75
2022/09/16 01:26:43;;;;;;;1.90;1.60;;;10.50;1.00;;;;;;5074590;28;20912;-69
2022/09/16 01:29:31;;;;;;;5.57;1.00;;;10.50;1.00;;;;;;5074856;28;20444;-68
2022/09/16 01:32:28;;;;;;;5.40;1.97;;;10.60;1.00;;;;;;5093212;28;20381;-68
2022/09/16 01:35:07;;;;;;;8.00;1.27;;;10.60;1.00;;;;;;5093324;28;20465;-72
2022/09/16 01:37:47;;;;;;;1.47;1.10;;;10.50;1.00;;;;;;5092603;28;20420;-73
2022/09/16 01:40:27;;;;;;;4.30;1.30;;;10.50;1.00;;;;;;5093346;28;20422;-75
2022/09/16 01:43:30;;;;;;;1.80;1.30;;;10.50;1.00;;;;;;5093211;28;20414;-71
2022/09/16 01:46:23;;;;;;;4.30;1.60;;;10.60;1.00;;;;;;5092797;28;20385;-75
2022/09/16 01:49:07;;;;;;;2.60;1.30;;;10.50;1.00;;;;;;5092511;28;20428;-68
2022/09/16 01:51:32;;;;;;;2.27;1.57;;;10.50;1.00;;;;;;5093188;28;20456;-75
2022/09/16 01:54:07;;;;;;;2.23;1.40;;;10.50;1.00;;;;;;5093159;28;20400;-67
2022/09/16 01:56:44;;;;;;;2.40;1.27;;;10.50;1.00;;;;;;5073711;28;20246;-67
2022/09/16 01:59:18;;;;;;;4.43;1.60;;;10.50;1.00;;;;;;5074813;28;20944;-74
2022/09/16 02:01:49;;;;;;;8.03;1.63;;;10.40;1.00;;;;;;5093018;28;20385;-75
2022/09/16 02:04:23;;;;;;;5.47;1.80;;;10.40;1.00;;;;;;5075258;28;20424;-70
2022/09/16 02:06:52;;;;;;;15.43;1.53;;;10.40;1.00;;;;;;5091866;28;20869;-74
2022/09/16 02:09:29;;;;;;;4.80;1.67;;;10.40;1.00;;;;;;5074925;28;20462;-73
2022/09/16 02:12:04;;;;;;;2.80;1.80;;;10.30;1.00;;;;;;5093000;28;20929;-75
2022/09/16 02:14:34;;;;;;;5.73;1.80;;;10.20;1.00;;;;;;5092980;28;20370;-68
2022/09/16 02:17:21;;;;;;;1.40;1.30;;;10.20;1.00;;;;;;5074197;28;20411;-68
2022/09/16 02:20:04;;;;;;;3.80;1.40;;;10.30;1.00;;;;;;5092806;28;20459;-74
2022/09/16 02:22:41;;;;;;;7.77;2.10;;;10.30;1.00;;;;;;5074646;28;20429;-74
2022/09/16 02:25:08;;;;;;;4.30;1.80;;;10.30;1.00;;;;;;5092104;28;20366;-73
2022/09/16 02:27:36;;;;;;;1.60;1.20;;;10.20;1.00;;;;;;5074032;28;20389;-73
2022/09/16 02:30:09;;;;;;;10.70;2.07;;;10.30;1.00;;;;;;5092869;28;20436;-68
2022/09/16 02:32:39;;;;;;;6.53;1.60;;;10.30;1.00;;;;;;5092788;28;20655;-75
2022/09/16 02:35:09;;;;;;;7.30;2.07;;;10.40;1.00;;;;;;5092676;28;20383;-75
2022/09/16 02:37:48;;;;;;;3.37;1.97;;;10.50;1.00;;;;;;5073675;28;20410;-69
2022/09/16 02:40:24;;;;;;;4.70;2.07;;;10.50;1.00;;;;;;5092755;28;20385;-75
2022/09/16 02:42:51;;;;;;;9.27;1.63;;;10.60;1.00;;;;;;5092127;28;20401;-75
2022/09/16 02:45:16;;;;;;;5.00;2.30;;;10.60;1.00;;;;;;5092570;28;20410;-69
2022/09/16 02:48:02;;;;;;;6.07;2.17;;;10.60;1.00;;;;;;5091699;28;20411;-68
2022/09/16 02:50:46;;;;;;;2.43;1.40;;;10.60;1.00;;;;;;5074704;28;20165;-68
2022/09/16 02:53:34;;;;;;;5.83;1.50;;;10.60;1.00;;;;;;5092598;28;20442;-68
2022/09/16 02:56:05;;;;;;;4.50;1.87;;;10.50;1.00;;;;;;5091962;28;20378;-73
2022/09/16 02:58:31;;;;;;;4.30;1.77;;;10.60;1.00;;;;;;5092504;28;20775;-75
2022/09/16 03:00:58;;;;;;;3.87;1.73;;;10.70;1.00;;;;;;5073780;28;20423;-69
2022/09/16 03:03:24;;;;;;;4.43;1.90;;;10.70;1.00;;;;;;5074413;28;20431;-74
2022/09/16 03:06:11;;;;;;;3.03;1.83;;;10.70;1.00;;;;;;5092232;28;20407;-68
2022/09/16 03:08:38;;;;;;;3.63;1.90;;;10.80;1.00;;;;;;5095869;28;20443;-74
2022/09/16 03:11:24;;;;;;;4.07;1.80;;;10.80;1.00;;;;;;5096143;28;20382;-74
2022/09/16 03:14:00;;;;;;;1.60;1.50;;;10.70;1.00;;;;;;5095435;28;20424;-73
2022/09/16 03:16:43;;;;;;;4.13;1.50;;;10.70;1.00;;;;;;5077326;28;20382;-75
2022/09/16 03:19:46;;;;;;;4.83;1.40;;;10.60;1.00;;;;;;5094977;28;20819;-74
2022/09/16 03:22:40;;;;;;;3.40;1.43;;;10.60;1.00;;;;;;5095754;28;20374;-70
2022/09/16 03:25:43;;;;;;;3.77;1.40;;;10.60;1.00;;;;;;5095656;28;20434;-75
2022/09/16 03:28:23;;;;;;;4.23;1.60;;;10.60;1.00;;;;;;5095195;28;20417;-68
2022/09/16 03:31:04;;;;;;;12.43;2.03;;;10.50;1.00;;;;;;5095873;28;20431;-68
2022/09/16 03:34:13;;;;;;;4.30;1.20;;;10.50;1.00;;;;;;5095671;28;20896;-75
2022/09/16 03:36:44;;;;;;;6.40;1.83;;;10.60;1.00;;;;;;5076925;28;20754;-74
2022/09/16 03:39:11;;;;;;;9.17;2.10;;;10.50;1.00;;;;;;5095056;28;20414;-68
2022/09/16 03:41:37;;;;;;;1.60;1.50;;;10.40;1.00;;;;;;5095467;28;20818;-73
2022/09/16 03:44:03;;;;;;;4.00;1.63;;;10.50;1.00;;;;;;5077230;28;20414;-69
2022/09/16 03:46:29;;;;;;;3.90;1.40;;;10.30;1.00;;;;;;5094833;28;20761;-75
2022/09/16 03:48:56;;;;;;;2.53;1.50;;;10.30;1.00;;;;;;5095185;28;20200;-74
2022/09/16 03:51:23;;;;;;;8.30;1.70;;;10.40;1.00;;;;;;5095447;28;20378;-68
2022/09/16 03:53:53;;;;;;;5.93;2.40;;;10.40;1.00;;;;;;5095047;28;20401;-68
2022/09/16 03:56:18;;;;;;;3.87;1.90;;;10.40;1.00;;;;;;5075572;28;21104;-69
2022/09/16 03:58:46;;;;;;;4.83;2.07;;;10.40;1.00;;;;;;5077154;28;20489;-75
2022/09/16 04:01:13;;;;;;;4.23;2.20;;;10.30;1.00;;;;;;5076825;28;20173;-68
2022/09/16 04:03:39;;;;;;;4.33;1.73;;;10.40;1.00;;;;;;5095114;28;20512;-68
2022/09/16 04:06:05;;;;;;;3.50;1.60;;;10.40;1.00;;;;;;5076266;28;20397;-74
2022/09/16 04:08:31;;;;;;;5.90;2.03;;;10.50;1.00;;;;;;5094734;28;20429;-74
2022/09/16 04:10:59;;;;;;;7.77;1.87;;;10.40;1.00;;;;;;5094836;28;20375;-69
2022/09/16 04:13:24;;;;;;;4.60;1.53;;;10.40;1.00;;;;;;5076498;28;20533;-68
2022/09/16 04:15:50;;;;;;;3.40;1.77;;;10.30;1.00;;;;;;5076498;28;20981;-68
2022/09/16 04:18:17;;;;;;;1.57;1.47;;;10.30;1.00;;;;;;5075502;28;20203;-74
2022/09/16 04:20:43;;;;;;;3.27;1.63;;;10.30;1.00;;;;;;5076678;28;20393;-74
2022/09/16 04:23:09;;;;;;;6.63;1.33;;;10.40;1.00;;;;;;5094677;28;20970;-67
2022/09/16 04:25:35;;;;;;;6.23;1.93;;;10.50;1.00;;;;;;5094642;28;20162;-72
2022/09/16 04:28:00;;;;;;;6.27;2.20;;;10.50;1.00;;;;;;5093807;28;20272;-69
2022/09/16 04:30:26;;;;;;;4.70;1.50;;;10.50;1.00;;;;;;5093935;28;20404;-74
2022/09/16 04:32:56;;;;;;;4.97;1.47;;;10.50;1.00;;;;;;5094630;28;20951;-69
2022/09/16 04:35:23;;;;;;;2.27;1.30;;;10.50;1.00;;;;;;5094663;28;20458;-67
2022/09/16 04:37:50;;;;;;;4.50;1.43;;;10.50;1.00;;;;;;5093544;28;20393;-75
2022/09/16 04:40:16;;;;;;;5.50;1.50;;;10.50;1.00;;;;;;5076093;28;20386;-70
2022/09/16 04:42:47;;;;;;;4.57;1.77;;;10.40;1.00;;;;;;5094338;28;20894;-67
2022/09/16 04:45:12;;;;;;;7.60;2.30;;;10.40;1.00;;;;;;5094036;28;20384;-72
2022/09/16 04:47:38;;;;;;;3.43;2.33;;;10.40;1.00;;;;;;5075039;28;20415;-75
2022/09/16 04:50:05;;;;;;;2.20;1.40;;;10.40;1.00;;;;;;5094215;28;20207;-68
2022/09/16 04:52:31;;;;;;;13.00;1.60;;;10.40;1.00;;;;;;5075600;28;20203;-74
2022/09/16 04:54:56;;;;;;;4.57;1.87;;;10.40;1.00;;;;;;5093986;28;20386;-74
2022/09/16 04:57:22;;;;;;;2.80;1.70;;;10.40;1.00;;;;;;5093494;28;20209;-75
2022/09/16 04:59:48;;;;;;;9.83;1.73;;;10.40;1.00;;;;;;5075937;28;20274;-68
2022/09/16 05:02:14;;;;;;;10.23;1.90;;;10.40;1.00;;;;;;5093599;28;20207;-70
2022/09/16 05:04:40;;;;;;;6.70;2.07;;;10.50;1.00;;;;;;5075422;28;20913;-74
2022/09/16 05:07:05;;;;;;;4.47;1.97;;;10.50;1.00;;;;;;5093054;28;20259;-74
2022/09/16 05:09:31;;;;;;;7.80;2.00;;;10.50;1.00;;;;;;5075409;28;20213;-72
2022/09/16 05:11:57;;;;;;;8.40;1.80;;;10.60;1.00;;;;;;5075701;28;20181;-73
2022/09/16 05:14:23;;;;;;;3.53;1.70;;;10.60;1.00;;;;;;5093804;28;20165;-68
2022/09/16 05:16:48;;;;;;;3.20;1.60;;;10.60;1.00;;;;;;5092996;28;20232;-73
2022/09/16 05:19:14;;;;;;;7.67;2.30;;;10.60;1.00;;;;;;5093346;28;20946;-74
2022/09/16 05:21:41;;;;;;;4.73;2.00;;;10.50;1.00;;;;;;5092947;28;20208;-74
2022/09/16 05:24:09;;;;;;;6.63;1.80;;;10.50;1.00;;;;;;5093394;28;20465;-67
2022/09/16 05:26:37;;;;;;;4.43;1.87;;;10.60;1.00;;;;;;5074673;28;20809;-69
2022/09/16 05:29:06;;;;;;;4.40;2.10;;;10.60;1.00;;;;;;5093199;28;20438;-74
2022/09/16 05:31:34;;;;;;;9.73;1.60;;;10.60;1.00;;;;;;5093493;28;20377;-70
2022/09/16 05:34:06;;;;;;;7.33;1.83;;;10.70;1.00;;;;;;5093399;28;20400;-73
2022/09/16 05:36:34;;;;;;;8.13;2.87;;;10.80;1.00;;;;;;5092534;28;20469;-73
2022/09/16 05:39:01;;;;;;;8.57;2.10;;;10.80;1.00;;;;;;5092996;28;20443;-68
2022/09/16 05:41:26;;;;;;;5.00;1.60;;;10.80;1.00;;;;;;5092824;28;20765;-68
2022/09/16 05:43:53;;;;;;;6.97;1.40;;;10.80;1.00;;;;;;5093314;28;20386;-68
2022/09/16 05:46:21;;;;;;;7.83;2.20;;;10.80;1.00;;;;;;5092626;28;20228;-74
2022/09/16 05:48:47;;;;;;;10.10;1.83;;;10.80;1.00;;;;;;5075087;28;20429;-70
2022/09/16 05:51:16;;;;;;;13.97;1.43;;;10.80;1.00;;;;;;5074906;28;20415;-67
2022/09/16 05:53:43;;;;;;;4.97;2.27;;;10.80;1.00;;;;;;5093192;28;20377;-67
2022/09/16 05:56:15;;;;;;;4.37;1.53;;;10.80;1.00;;;;;;5092440;28;20407;-67
2022/09/16 05:58:40;;;;;;;5.50;2.20;;;10.70;1.00;;;;;;5092520;28;20786;-68
2022/09/16 06:01:10;;;;;;;5.90;1.97;;;10.80;1.00;;;;;;5092907;28;20389;-73
2022/09/16 06:03:38;;;;;;;7.77;2.00;;;10.80;1.00;;;;;;5074962;28;20255;-73
2022/09/16 06:06:10;;;;;;;3.27;1.10;;;10.80;1.00;;;;;;5092502;28;20448;-72
2022/09/16 06:08:38;;;;;;;4.43;1.83;;;10.90;1.00;;;;;;5092838;28;20445;-66
2022/09/16 06:11:07;;;;;;;5.83;2.23;;;10.90;1.00;;;;;;5092824;28;20380;-68
2022/09/16 06:13:33;;;;;;;8.60;1.63;;;10.90;1.00;;;;;;5075122;28;20455;-68
2022/09/16 06:15:59;;;;;;;4.90;2.03;;;11.00;1.00;;;;;;5092398;28;20375;-68
2022/09/16 06:18:28;;;;;;;3.00;2.50;;;11.00;1.00;;;;;;5074428;28;20419;-68
2022/09/16 06:20:53;;;;;;;5.90;1.93;;;11.00;1.00;;;;;;5093061;28;20409;-71
2022/09/16 06:23:19;;;;;;;8.03;2.10;;;11.10;1.00;;;;;;5074674;28;20407;-68
2022/09/16 06:25:45;;;;;;;4.40;1.83;;;11.10;1.00;;;;;;5092692;28;20436;-76
2022/09/16 06:28:11;;;;;;;6.83;1.80;;;11.20;1.00;;;;;;5092179;28;20426;-73
2022/09/16 06:30:37;;;;;;;5.87;1.90;;;11.20;1.00;;;;;;5074769;28;20786;-75
2022/09/16 06:33:03;;;;;;;1.50;1.40;;;11.20;1.00;;;;;;5092755;28;20203;-68
2022/09/16 06:35:30;;;;;;;8.20;1.60;;;11.30;1.00;;;;;;5092229;28;20403;-67
2022/09/16 06:37:56;;;;;;;2.50;1.10;;;11.40;1.00;;;;;;5091937;28;20443;-68
2022/09/16 06:40:21;;;;;;;4.57;1.80;;;11.40;1.00;;;;;;5092467;28;20438;-69
2022/09/16 06:42:47;;;;;;;7.80;1.73;;;11.50;1.00;;;;;;5093850;28;20969;-72
2022/09/16 06:45:13;;;;;;;3.50;1.23;;;11.50;1.00;;;;;;5095974;28;20178;-73
2022/09/16 06:47:38;;;;;;;2.63;1.70;;;11.70;1.00;;;;;;5095292;28;20182;-74
2022/09/16 06:50:05;;;;;;;2.93;1.43;;;11.80;1.00;;;;;;5096256;28;20292;-68
2022/09/16 06:52:31;;;;;;;4.10;1.87;;;11.80;1.00;;;;;;5095796;28;20240;-73
2022/09/16 06:54:57;;;;;;;3.63;1.47;;;11.80;1.00;;;;;;5096322;28;20861;-68
2022/09/16 06:57:23;;;;;;;2.47;1.53;;;11.70;1.00;;;;;;5094758;28;20416;-69
2022/09/16 06:59:49;;;;;;;2.80;1.37;;;11.60;1.00;;;;;;5096164;28;20200;-75
2022/09/16 07:02:15;;;;;;;1.93;1.73;;;11.50;1.00;;;;;;5076560;28;20253;-68
2022/09/16 07:04:41;;;;;;;4.27;1.47;;;11.50;1.00;;;;;;5084819;28;20458;-74
2022/09/16 07:07:07;;;;;;;3.10;1.90;;;11.40;1.00;;;;;;5094176;28;20462;-74
2022/09/16 07:09:33;;;;;;;8.30;1.67;;;11.40;1.00;;;;;;5076337;28;20859;-75
2022/09/16 07:12:00;;;;;;;8.87;1.80;;;11.50;1.00;;;;;;5085352;28;20717;-68
2022/09/16 07:14:27;;;;;;;3.80;1.43;;;11.50;1.00;;;;;;5075758;28;20411;-74
2022/09/16 07:16:53;;;;;;;3.73;1.97;;;11.50;1.00;;;;;;5095186;28;20388;-74
2022/09/16 07:19:19;;;;;;;4.13;1.53;;;11.50;1.00;;;;;;5095896;28;20522;-74
2022/09/16 07:21:45;;;;;;;4.40;1.73;;;11.50;1.00;;;;;;5095859;28;20386;-73
2022/09/16 07:24:12;;;;;;;7.13;1.70;;;11.50;1.00;;;;;;5095970;28;20399;-72
2022/09/16 07:26:39;;;;;;;4.67;2.07;;;11.70;1.00;;;;;;5094224;28;20796;-73
2022/09/16 07:29:08;;;;;;;4.67;1.50;;;11.90;1.00;;;;;;5095568;28;20434;-68
2022/09/16 07:31:36;;;;;;;11.67;1.90;;;12.10;1.00;;;;;;5095643;28;20408;-69
2022/09/16 07:34:04;;;;;;;1.73;1.20;;;12.10;1.00;;;;;;5095663;28;20382;-67
2022/09/16 07:36:37;;;;;;;3.37;1.80;;;12.10;1.00;;;;;;5094944;28;20494;-70
2022/09/16 07:39:04;;;;;;;3.30;1.80;;;12.10;1.00;;;;;;5095448;28;20923;-68
2022/09/16 07:41:34;;;;;;;8.60;2.13;;;12.10;1.00;;;;;;5095663;28;20742;-68
2022/09/16 07:44:01;;;;;;;10.33;2.50;;;12.20;1.00;;;;;;5094770;28;20494;-69
2022/09/16 07:46:30;;;;;;;5.73;1.70;;;12.40;1.00;;;;;;5094766;28;20396;-68
2022/09/16 07:48:58;;;;;;;7.23;1.53;;;12.50;1.00;;;;;;5095200;28;20538;-72
2022/09/16 07:51:26;;;;;;;8.63;2.10;;;12.60;1.00;;;;;;5095272;28;20413;-67
2022/09/16 07:54:01;;;;;;;7.53;1.80;;;12.60;1.00;;;;;;5093953;28;20884;-74
2022/09/16 07:56:28;;;;;;;5.73;2.03;;;12.60;1.00;;;;;;5094512;28;20381;-68
2022/09/16 07:58:55;;;;;;;5.83;2.07;;;12.60;1.00;;;;;;5095161;28;20416;-74
2022/09/16 08:01:21;;;;;;;4.20;1.63;;;12.70;1.00;;;;;;5095334;28;20399;-74
2022/09/16 08:03:47;;;;;;;9.20;1.47;;;12.90;1.00;;;;;;5094425;28;20411;-68
2022/09/16 08:06:19;;;;;;;2.07;1.10;;;13.00;1.00;;;;;;5076286;28;20453;-68
2022/09/16 08:08:45;;;;;;;8.50;1.80;;;13.10;1.00;;;;;;5094910;28;20455;-74
2022/09/16 08:11:13;;;;;;;6.70;2.03;;;13.10;1.00;;;;;;5094946;28;20435;-74
2022/09/16 08:13:40;;;;;;;4.40;1.57;;;13.10;1.00;;;;;;5094912;28;20466;-68
2022/09/16 08:16:12;;;;;;;3.30;1.30;;;13.20;1.00;;;;;;5076080;28;20511;-68
2022/09/16 08:18:39;;;;;;;6.83;2.43;;;13.40;1.00;;;;;;5094501;28;20430;-69
2022/09/16 08:21:08;;;;;;;1.67;1.37;;;13.50;1.00;;;;;;5094298;28;20431;-68
2022/09/16 08:23:36;;;;;;;5.47;1.90;;;13.60;1.00;;;;;;5076554;28;20423;-69
2022/09/16 08:26:03;;;;;;;4.03;1.60;;;13.80;1.00;;;;;;5094283;28;20426;-69
2022/09/16 08:28:29;;;;;;;10.67;3.73;;;13.90;1.00;;;;;;5094409;28;20447;-68
2022/09/16 08:30:59;;;;;;;6.57;1.93;;;14.00;1.00;;;;;;5094573;28;20403;-69
2022/09/16 08:33:25;;;;;;;3.97;1.50;;;14.20;1.00;;;;;;5094546;28;20392;-68
2022/09/16 08:36:03;;;;;;;8.70;1.70;;;14.40;1.00;;;;;;5094250;28;20425;-73
2022/09/16 08:38:29;;;;;;;2.70;1.37;;;14.50;1.00;;;;;;5093578;28;20946;-67
2022/09/16 08:41:25;;;;;;;3.87;1.37;;;14.50;1.00;;;;;;5094352;28;20400;-73
2022/09/16 08:44:13;;;;;;;5.30;1.20;;;14.60;1.00;;;;;;5076157;28;20423;-68
2022/09/16 08:46:53;;;;;;;6.10;1.77;;;14.70;1.00;;;;;;5093677;28;20447;-68
2022/09/16 08:49:53;;;;;;;2.47;1.70;;;14.70;1.00;;;;;;5093860;28;20453;-68
2022/09/16 08:52:30;;;;;;;9.73;1.27;;;14.50;1.00;;;;;;5075611;28;20419;-75
2022/09/16 08:55:12;;;;;;;2.80;1.63;;;14.50;1.00;;;;;;5094063;28;20417;-74
2022/09/16 08:58:04;;;;;;;4.40;1.33;;;14.40;1.00;;;;;;5093074;28;20404;-68
2022/09/16 09:00:32;;;;;;;3.30;1.17;;;14.30;1.00;;;;;;5093647;28;20411;-67
2022/09/16 09:03:19;;;;;;;2.90;1.37;;;14.30;1.00;;;;;;5093924;28;20449;-74
2022/09/16 09:05:56;;;;;;;5.93;1.90;;;14.20;1.00;;;;;;5093469;28;20904;-68
2022/09/16 09:08:31;;;;;;;5.63;2.03;;;14.20;1.00;;;;;;5093226;28;20500;-68
2022/09/16 09:11:11;;;;;;;6.43;1.30;;;14.30;1.00;;;;;;5093685;28;20406;-74
2022/09/16 09:13:54;;;;;;;4.47;2.10;;;14.40;1.00;;;;;;5093728;28;20427;-68
2022/09/16 09:16:26;;;;;;;3.33;1.23;;;14.70;1.00;;;;;;5093133;28;20501;-75
2022/09/16 09:19:16;;;;;;;4.77;1.57;;;14.90;1.00;;;;;;5093064;28;20423;-73
2022/09/16 09:22:00;;;;;;;4.27;1.73;;;14.90;1.00;;;;;;5093654;28;20753;-74
2022/09/16 09:24:51;;;;;;;15.17;1.97;;;14.90;1.00;;;;;;5093576;28;20427;-68
2022/09/16 09:27:39;;;;;;;2.40;1.90;;;14.90;1.00;;;;;;5092904;28;20419;-73
2022/09/16 09:30:05;;;;;;;8.70;2.20;;;14.80;1.00;;;;;;5093512;28;20462;-66
2022/09/16 09:32:51;;;;;;;5.60;1.57;;;14.90;1.00;;;;;;5093527;28;20399;-69
2022/09/16 09:35:46;;;;;;;6.43;2.03;;;14.90;1.00;;;;;;5093265;28;20410;-72
2022/09/16 09:38:36;;;;;;;3.57;1.40;;;14.90;1.00;;;;;;5092429;28;20444;-75
2022/09/16 09:41:30;;;;;;;8.53;2.80;;;14.90;1.00;;;;;;5093260;28;20902;-68
2022/09/16 09:44:14;;;;;;;4.20;1.33;;;14.90;1.00;;;;;;5093248;28;20447;-67
2022/09/16 09:46:51;;;;;;;6.97;1.67;;;14.90;1.00;;;;;;5067914;28;20431;-74
2022/09/16 09:49:34;;;;;;;6.47;1.80;;;15.00;1.00;;;;;;5084920;28;20458;-74
2022/09/16 09:52:03;;;;;;;5.10;1.80;;;15.10;1.00;;;;;;5113140;28;20403;-70
2022/09/16 09:54:33;;;;;;;7.87;1.97;;;15.10;1.00;;;;;;5079518;28;20412;-73
2022/09/16 09:57:13;;;;;;;6.97;1.77;;;15.40;1.00;;;;;;5091978;28;20435;-72
2022/09/16 09:59:47;;;;;;;11.13;1.80;;;15.80;1.00;;;;;;5090570;28;21413;-68
2022/09/16 10:02:19;;;;;;;10.47;2.13;;;16.00;1.00;;;;;;5076156;28;20593;-72
2022/09/16 10:04:45;;;;;;;13.70;2.20;;;15.80;1.00;;;;;;5067592;28;20433;-74
2022/09/16 10:07:14;;;;;;;13.03;2.43;;;15.80;1.00;;;;;;5077477;28;20431;-67
2022/09/16 10:10:01;;;;;;;8.67;2.10;;;15.70;1.00;;;;;;5079422;28;20478;-75
2022/09/16 10:12:33;;;;;;;6.03;2.27;;;15.60;1.00;;;;;;5087178;28;20459;-72
2022/09/16 10:15:00;;;;;;;7.53;1.83;;;15.30;1.00;;;;;;5074491;28;20945;-75
2022/09/16 10:17:29;;;;;;;6.87;1.73;;;15.10;1.00;;;;;;5074352;28;20424;-74
2022/09/16 10:20:04;;;;;;;7.00;1.80;;;15.60;1.00;;;;;;5076743;28;20570;-75
2022/09/16 10:22:33;;;;;;;11.50;2.00;;;16.30;1.00;;;;;;5075778;28;20445;-76
2022/09/16 10:25:06;;;;;;;5.70;2.30;;;16.90;1.00;;;;;;5076549;28;20400;-68
2022/09/16 10:27:37;;;;;;;6.97;1.87;;;17.40;1.00;;;;;;5076292;28;20434;-69
2022/09/16 10:30:14;;;;;;;7.53;2.27;;;17.70;1.00;;;;;;5096254;28;20483;-67
2022/09/16 10:33:03;;;;;;;4.03;1.57;;;18.00;1.00;;;;;;5097139;28;20413;-75
2022/09/16 10:35:35;;;;;;;8.77;1.53;;;18.30;1.00;;;;;;5096877;28;20415;-68
2022/09/16 10:38:16;;;;;;;3.43;1.53;;;18.50;1.00;;;;;;5096006;28;20426;-75
2022/09/16 10:41:00;;;;;;;5.37;1.57;;;18.40;1.00;;;;;;5096705;28;20498;-73
2022/09/16 10:43:28;;;;;;;7.50;1.83;;;17.90;1.00;;;;;;5096601;28;20930;-69
2022/09/16 10:45:55;;;;;;;3.00;1.10;;;17.40;1.00;;;;;;5095686;28;20408;-69
2022/09/16 10:48:25;;;;;;;2.80;1.10;;;16.90;1.00;;;;;;5095864;28;20466;-73
2022/09/16 10:50:56;;;;;;;9.10;2.03;;;16.40;1.00;;;;;;5096453;28;20509;-72
2022/09/16 10:53:31;;;;;;;1.60;1.20;;;16.50;1.00;;;;;;5096425;28;20396;-76
2022/09/16 10:55:59;;;;;;;2.30;1.37;;;16.70;1.00;;;;;;5078011;28;20779;-69
2022/09/16 10:59:37;;;;;;;6.00;1.30;;;16.60;1.00;;;;;;5096192;28;20509;-75
2022/09/16 11:02:26;;;;;;;7.07;1.57;;;16.90;1.00;;;;;;5096206;28;20411;-69
2022/09/16 11:05:08;;;;;;;2.10;1.20;;;16.90;1.00;;;;;;5095763;28;20517;-74
2022/09/16 11:07:49;;;;;;;5.83;1.97;;;17.00;1.00;;;;;;5095286;28;20412;-71
2022/09/16 11:10:58;;;;;;;3.10;1.37;;;17.00;1.00;;;;;;5096034;28;20458;-68
2022/09/16 11:13:45;;;;;;;3.53;1.70;;;16.70;1.00;;;;;;5057204;28;20415;-70
2022/09/16 11:16:16;;;;;;;2.30;0.90;;;16.50;1.00;;;;;;5095466;28;20407;-73
2022/09/16 11:18:54;;;;;;;2.90;1.10;;;16.20;1.00;;;;;;5096053;28;20510;-68
2022/09/16 11:21:54;;;;;;;8.93;1.20;;;15.80;1.00;;;;;;5095385;28;20411;-71
2022/09/16 11:24:35;;;;;;;3.37;1.03;;;15.70;1.00;;;;;;5095851;28;20415;-74
2022/09/16 11:27:36;;;;;;;5.63;1.40;;;15.90;1.00;;;;;;5094931;28;20419;-75
2022/09/16 11:30:20;;;;;;;5.60;1.70;;;16.20;1.00;;;;;;5095743;28;20492;-75
2022/09/16 11:32:58;;;;;;;1.40;0.97;;;16.00;1.00;;;;;;5095719;28;20406;-75
2022/09/16 11:35:38;;;;;;;4.87;1.03;;;15.60;1.00;;;;;;5095748;28;20400;-72
2022/09/16 11:38:20;;;;;;;5.63;1.53;;;15.30;1.00;;;;;;5094032;28;20427;-73
2022/09/16 11:44:15;;;;;;;2.13;1.80;;;14.90;1.00;;;;;;5013858;28;20422;-72
2022/09/16 11:47:05;;;;;;;2.30;1.07;;;14.80;1.00;;;;;;5012939;28;20948;-76
2022/09/16 11:49:47;;;;;;;4.20;1.10;;;14.70;1.00;;;;;;5092585;28;20459;-75
2022/09/16 11:52:41;;;;;;;1.70;1.30;;;14.90;1.00;;;;;;5077244;28;20473;-75
2022/09/16 11:55:30;;;;;;;5.50;3.00;;;15.00;1.00;;;;;;5076574;28;20502;-76
2022/09/16 11:58:09;;;;;;;3.37;1.27;;;15.10;1.00;;;;;;5094191;28;20435;-75
2022/09/16 12:00:38;;;;;;;2.47;1.13;;;15.20;1.00;;;;;;5077361;28;20411;-75
2022/09/16 12:03:22;;;;;;;3.10;1.00;;;15.30;1.00;;;;;;5076975;28;20422;-75
2022/09/16 12:05:55;;;;;;;1.70;1.10;;;15.60;1.00;;;;;;5094761;28;20757;-76
2022/09/16 12:09:05;;;;;;;1.93;1.00;;;15.90;1.00;;;;;;5076212;28;20431;-74
2022/09/16 12:15:39;;;;;;;1.73;0.80;;;15.70;1.00;;;;;;5051922;28;20451;-75
2022/09/16 12:18:31;;;;;;;1.57;1.00;;;15.70;1.00;;;;;;5035235;28;20536;-75
2022/09/16 12:21:10;;;;;;;2.90;1.17;;;16.00;1.00;;;;;;5058698;28;20812;-74
2022/09/16 12:23:50;;;;;;;1.97;1.03;;;16.30;1.00;;;;;;5076564;28;20415;-74
2022/09/16 12:26:43;;;;;;;3.33;1.20;;;16.40;1.00;;;;;;5075888;28;20419;-74
2022/09/16 12:29:41;;;;;;;2.90;1.10;;;16.50;1.00;;;;;;5094343;28;20588;-75
2022/09/16 12:32:18;;;;;;;3.97;1.10;;;16.90;1.00;;;;;;5094454;28;20407;-74
2022/09/16 12:35:16;;;;;;;8.93;1.30;;;16.60;1.00;;;;;;5093932;28;20407;-74
2022/09/16 12:37:48;;;;;;;2.80;1.03;;;16.10;1.00;;;;;;5092947;28;20476;-73
2022/09/16 12:40:46;;;;;;;2.53;1.20;;;15.70;1.00;;;;;;5093678;28;20420;-73
2022/09/16 12:46:49;;;;;;;5.00;1.30;;;14.80;1.00;;;;;;4995392;28;20451;-70
2022/09/16 12:49:41;;;;;;;6.53;1.40;;;14.60;1.00;;;;;;5085439;28;20450;-73
2022/09/16 12:53:06;;;;;;;1.97;1.00;;;14.50;1.00;;;;;;5063172;28;20432;-74
2022/09/16 12:56:16;;;;;;;3.57;1.40;;;14.30;1.00;;;;;;5073452;28;20725;-74
2022/09/16 12:59:03;;;;;;;2.70;1.97;;;14.90;1.00;;;;;;5075655;28;20435;-73
2022/09/16 13:02:05;;;;;;;4.07;1.03;;;15.70;1.00;;;;;;5088698;28;20420;-73
2022/09/16 13:04:38;;;;;;;2.40;1.50;;;16.30;1.00;;;;;;5093380;28;20781;-72
2022/09/16 13:07:05;;;;;;;2.23;1.70;;;16.10;1.00;;;;;;5079007;28;20420;-72
2022/09/16 13:09:40;;;;;;;3.20;1.20;;;15.90;1.00;;;;;;5054947;28;20555;-73
2022/09/16 13:12:19;;;;;;;6.43;1.57;;;15.50;1.00;;;;;;5055092;28;20423;-72
2022/09/16 13:14:59;;;;;;;4.03;1.10;;;15.10;1.00;;;;;;5055271;28;20386;-73
2022/09/16 13:17:35;;;;;;;3.10;1.30;;;15.10;1.00;;;;;;5054873;28;20427;-71
2022/09/16 13:20:06;;;;;;;4.73;1.40;;;15.00;1.00;;;;;;5073308;28;20400;-74
2022/09/16 13:22:39;;;;;;;3.53;1.00;;;14.90;1.00;;;;;;5073246;28;20436;-72
2022/09/16 13:25:26;;;;;;;3.83;1.27;;;14.70;1.00;;;;;;5055543;28;20903;-71
2022/09/16 13:28:29;;;;;;;7.23;1.50;;;14.50;1.00;;;;;;5054732;28;20511;-71
2022/09/16 13:30:55;;;;;;;3.73;1.77;;;14.40;1.00;;;;;;5022196;28;20420;-70
2022/09/16 13:33:27;;;;;;;7.37;1.57;;;14.40;1.00;;;;;;5072475;28;20929;-71
2022/09/16 13:36:23;;;;;;;8.53;1.60;;;14.40;1.00;;;;;;5073098;28;20418;-74
2022/09/16 13:38:54;;;;;;;4.60;1.10;;;14.30;1.00;;;;;;5072906;28;20471;-75
2022/09/16 13:41:38;;;;;;;3.73;1.73;;;14.10;1.00;;;;;;5055286;28;20982;-71
2022/09/16 13:44:31;;;;;;;5.23;1.33;;;13.90;1.00;;;;;;5055180;28;20416;-72
2022/09/16 13:47:09;;;;;;;4.40;2.30;;;13.90;1.00;;;;;;5065756;28;20431;-71